Time;durP1;ratioP1;P1;durP2;ratioP2;P2;SDS_P1;SDS_P2;PMS_P1;PMS_P2;Temp;Humidity;BMP_temperature;BMP_pressure;BME280_temperature;BME280_humidity;BME280_pressure;Samples;Min_cycle;Max_cycle;Signal;HPM_P1;HPM_P2
2022/10/08 00:03:42;;;;;;;9.80;6.65;;;;;;;15.53;72.44;100354.59;10394126;28;20060;-69
2022/10/08 00:08:57;;;;;;;10.48;7.38;;;;;;;15.41;72.38;100347.78;10399863;28;20061;-70
2022/10/08 00:14:00;;;;;;;10.50;7.05;;;;;;;15.29;72.92;100354.38;10443268;28;20063;-70
2022/10/08 00:19:06;;;;;;;7.90;7.10;;;;;;;15.24;73.27;100351.28;10403845;28;20592;-69
2022/10/08 00:24:12;;;;;;;9.20;7.22;;;;;;;15.22;73.46;100353.28;10400958;28;20057;-69
2022/10/08 00:29:15;;;;;;;9.45;7.43;;;;;;;15.18;73.58;100350.91;10397711;28;20041;-71
2022/10/08 00:34:20;;;;;;;9.43;6.88;;;;;;;15.33;73.68;100340.50;10399158;28;20045;-69
2022/10/08 00:39:23;;;;;;;11.23;6.63;;;;;;;15.32;72.96;100338.81;10396295;28;20045;-71
2022/10/08 00:44:49;;;;;;;11.93;6.90;;;;;;;15.27;73.51;100342.97;10398288;28;20616;-69
2022/10/08 00:49:56;;;;;;;10.27;6.82;;;;;;;15.41;73.32;100341.59;10395816;28;20048;-70
2022/10/08 00:54:57;;;;;;;9.15;6.15;;;;;;;15.26;73.74;100325.19;10418316;28;20340;-68
2022/10/08 01:00:04;;;;;;;11.60;6.82;;;;;;;15.29;73.74;100333.75;10437951;28;20705;-69
2022/10/08 01:05:06;;;;;;;10.27;6.60;;;;;;;15.34;73.75;100338.66;10418773;28;20072;-73
2022/10/08 01:10:25;;;;;;;7.07;6.35;;;;;;;15.26;74.04;100343.97;10438502;28;20139;-73
2022/10/08 01:15:32;;;;;;;7.88;6.10;;;;;;;15.29;74.58;100330.25;10434869;28;20705;-68
2022/10/08 01:20:42;;;;;;;11.57;7.20;;;;;;;15.31;74.57;100331.78;10394860;28;20783;-69
2022/10/08 01:26:27;;;;;;;9.77;6.18;;;;;;;15.29;74.66;100327.56;10402445;28;20049;-69
2022/10/08 01:31:34;;;;;;;11.40;6.53;;;;;;;15.31;74.29;100325.56;10396115;28;20053;-71
2022/10/08 01:36:42;;;;;;;8.80;5.30;;;;;;;15.34;74.31;100335.97;10395075;28;20046;-71
2022/10/08 01:41:57;;;;;;;7.40;4.40;;;;;;;15.40;73.31;100335.38;10399577;28;20041;-70
2022/10/08 01:47:02;;;;;;;6.72;3.55;;;;;;;15.42;72.52;100328.03;10399146;28;20547;-68
2022/10/08 01:52:10;;;;;;;8.93;4.93;;;;;;;15.35;71.82;100329.63;10414248;28;20050;-68
2022/10/08 01:57:12;;;;;;;7.05;4.05;;;;;;;15.43;72.00;100324.31;10412385;28;20054;-67
2022/10/08 02:02:20;;;;;;;7.90;3.90;;;;;;;15.18;71.36;100326.78;10407875;28;20053;-71
2022/10/08 02:07:22;;;;;;;7.85;4.47;;;;;;;15.16;72.48;100339.50;10418101;28;20057;-71
2022/10/08 02:12:23;;;;;;;9.02;4.22;;;;;;;15.06;72.05;100341.41;10398952;28;20788;-70
2022/10/08 02:18:06;;;;;;;5.63;3.58;;;;;;;15.02;73.06;100340.84;10397796;28;20056;-70
2022/10/08 02:23:21;;;;;;;7.22;4.45;;;;;;;14.85;72.87;100331.78;10394078;28;20040;-72
2022/10/08 02:28:42;;;;;;;10.10;4.47;;;;;;;14.75;73.58;100333.66;10396244;28;20416;-69
2022/10/08 02:33:50;;;;;;;7.00;3.65;;;;;;;14.75;74.00;100332.81;10401643;28;20508;-71
2022/10/08 02:38:56;;;;;;;6.82;3.80;;;;;;;14.82;74.05;100329.41;10401393;28;20064;-71
2022/10/08 02:44:01;;;;;;;5.90;4.47;;;;;;;14.83;73.24;100331.09;10399387;28;20132;-69
2022/10/08 02:49:36;;;;;;;8.77;4.32;;;;;;;14.74;73.05;100329.31;10397076;28;20053;-69
2022/10/08 02:54:41;;;;;;;10.48;3.90;;;;;;;14.70;73.23;100332.41;10392752;28;20045;-71
2022/10/08 02:59:44;;;;;;;6.95;3.83;;;;;;;14.59;73.69;100326.25;10399947;28;20041;-71
2022/10/08 03:04:55;;;;;;;6.57;3.35;;;;;;;14.58;73.37;100335.28;10392887;28;20590;-70
2022/10/08 03:09:59;;;;;;;10.13;3.75;;;;;;;14.58;72.99;100334.44;10391956;28;20047;-71
2022/10/08 03:15:01;;;;;;;7.03;3.42;;;;;;;14.60;73.57;100337.81;10391109;28;20053;-70
2022/10/08 03:20:05;;;;;;;7.47;3.22;;;;;;;14.60;73.99;100335.13;10394263;28;20056;-71
2022/10/08 03:25:06;;;;;;;;;;;;;;;14.54;73.85;100343.75;10415005;28;20049;-72
2022/10/08 03:30:08;;;;;;;7.07;3.72;;;;;;;14.48;73.52;100342.50;10398286;28;19929;-71
2022/10/08 03:35:10;;;;;;;5.97;3.97;;;;;;;14.52;73.55;100351.06;10412986;28;20051;-69
2022/10/08 03:40:12;;;;;;;6.95;3.30;;;;;;;14.53;73.88;100352.75;10406733;28;20053;-69
2022/10/08 03:45:13;;;;;;;5.97;3.45;;;;;;;14.45;74.14;100367.72;10403574;28;20057;-70
2022/10/08 03:50:14;;;;;;;9.27;3.65;;;;;;;14.42;73.80;100362.66;10432829;28;20048;-71
2022/10/08 03:55:16;;;;;;;7.07;3.45;;;;;;;14.30;73.30;100362.00;10431956;28;20053;-69
2022/10/08 04:00:17;;;;;;;7.18;3.35;;;;;;;14.30;73.52;100363.84;10406104;28;20045;-71
2022/10/08 04:05:19;;;;;;;6.93;3.83;;;;;;;14.26;73.37;100378.50;10435048;28;20113;-72
2022/10/08 04:10:20;;;;;;;7.03;3.55;;;;;;;14.23;73.59;100389.50;10440700;28;20049;-72
2022/10/08 04:15:21;;;;;;;9.75;3.67;;;;;;;14.12;73.56;100377.94;10425016;28;20045;-73
2022/10/08 04:20:23;;;;;;;5.82;3.47;;;;;;;14.24;74.63;100383.16;10444276;28;20072;-71
2022/10/08 04:25:24;;;;;;;4.55;3.28;;;;;;;14.24;73.77;100401.91;10449171;28;20104;-69
2022/10/08 04:30:25;;;;;;;5.82;3.75;;;;;;;14.21;74.66;100399.50;10398990;28;20075;-70
2022/10/08 04:35:27;;;;;;;5.20;3.28;;;;;;;14.20;74.48;100395.13;10390960;28;20051;-71
2022/10/08 04:40:28;;;;;;;6.45;3.53;;;;;;;14.10;74.91;100401.34;10371593;28;20061;-72
2022/10/08 04:45:29;;;;;;;9.80;3.50;;;;;;;14.12;74.81;100401.22;10380053;28;20046;-71
2022/10/08 04:50:31;;;;;;;6.10;3.83;;;;;;;14.11;74.50;100395.03;10385519;28;20572;-71
2022/10/08 04:55:32;;;;;;;6.38;3.60;;;;;;;13.99;74.05;100414.91;10383122;28;20060;-74
2022/10/08 05:00:34;;;;;;;8.73;3.83;;;;;;;13.86;74.63;100415.19;10382185;28;20057;-70
2022/10/08 05:05:40;;;;;;;7.20;4.07;;;;;;;13.92;74.55;100413.78;10412787;28;20045;-72
2022/10/08 05:10:48;;;;;;;6.43;3.55;;;;;;;13.89;73.97;100425.59;10411827;28;20058;-73
2022/10/08 05:15:50;;;;;;;7.53;3.53;;;;;;;13.85;74.75;100424.19;10421368;28;20055;-73
2022/10/08 05:20:51;;;;;;;5.35;3.53;;;;;;;13.72;73.83;100429.81;10392898;28;20283;-73
2022/10/08 05:25:52;;;;;;;5.80;3.28;;;;;;;13.69;74.18;100414.06;10401624;28;20163;-76
2022/10/08 05:31:00;;;;;;;5.70;3.33;;;;;;;13.61;74.05;100417.41;10422766;28;20455;-72
2022/10/08 05:36:08;;;;;;;6.63;3.38;;;;;;;13.65;74.27;100434.03;10424955;28;20101;-72
2022/10/08 05:41:24;;;;;;;6.70;3.90;;;;;;;13.71;73.89;100438.81;10415424;28;20462;-71
2022/10/08 05:46:27;;;;;;;7.47;3.78;;;;;;;13.67;74.04;100441.91;10437985;28;20419;-72
2022/10/08 05:51:29;;;;;;;6.32;3.70;;;;;;;13.68;73.61;100451.63;10388388;28;20134;-67
2022/10/08 05:56:30;;;;;;;7.53;4.20;;;;;;;13.62;73.72;100455.72;10380670;28;20474;-68
2022/10/08 06:01:32;;;;;;;6.47;3.63;;;;;;;13.65;73.79;100460.78;10387397;28;20594;-74
2022/10/08 06:06:39;;;;;;;6.05;3.85;;;;;;;13.56;73.76;100457.09;10416782;28;20565;-70
2022/10/08 06:11:41;;;;;;;7.20;4.50;;;;;;;13.57;74.30;100456.13;10380059;28;20048;-70
2022/10/08 06:16:42;;;;;;;5.75;3.10;;;;;;;13.59;73.19;100456.00;10383657;28;20054;-69
2022/10/08 06:21:44;;;;;;;7.82;3.38;;;;;;;13.46;73.81;100460.75;10425351;28;20088;-71
2022/10/08 06:26:45;;;;;;;6.95;4.10;;;;;;;13.44;73.49;100464.38;10438726;28;20132;-73
2022/10/08 06:31:47;;;;;;;7.53;3.58;;;;;;;13.35;73.25;100467.88;10427982;28;20053;-71
2022/10/08 06:36:49;;;;;;;8.00;3.85;;;;;;;13.39;74.09;100460.44;10407913;28;20057;-71
2022/10/08 06:41:50;;;;;;;11.38;3.70;;;;;;;13.33;73.73;100460.94;10415248;28;20056;-71
2022/10/08 06:46:53;;;;;;;7.25;4.43;;;;;;;13.43;74.76;100467.19;10403159;28;20044;-71
2022/10/08 06:51:54;;;;;;;7.20;4.15;;;;;;;13.44;74.18;100468.91;10394814;28;20071;-70
2022/10/08 06:56:56;;;;;;;4.82;3.10;;;;;;;13.44;73.97;100485.78;10419266;28;20061;-72
2022/10/08 07:01:57;;;;;;;11.15;4.78;;;;;;;13.67;74.36;100490.06;10449533;28;20047;-72
2022/10/08 07:06:59;;;;;;;8.10;3.33;;;;;;;13.99;72.60;100497.88;10438464;28;20319;-67
2022/10/08 07:12:00;;;;;;;7.50;3.30;;;;;;;13.88;71.99;100503.34;10424392;28;20116;-69
2022/10/08 07:17:02;;;;;;;6.63;3.38;;;;;;;14.00;70.73;100507.56;10406072;28;20056;-71
2022/10/08 07:22:04;;;;;;;10.60;5.13;;;;;;;14.19;69.67;100506.75;10402290;28;20265;-70
2022/10/08 07:27:05;;;;;;;9.50;3.50;;;;;;;14.11;69.28;100512.81;10418682;28;20178;-68
2022/10/08 07:32:06;;;;;;;6.70;3.50;;;;;;;14.22;69.00;100527.03;10448005;28;20359;-71
2022/10/08 07:37:07;;;;;;;6.38;4.43;;;;;;;14.09;68.23;100525.47;10426272;28;20044;-67
2022/10/08 07:42:09;;;;;;;8.77;3.47;;;;;;;14.21;68.13;100533.38;10421929;28;20049;-69
2022/10/08 07:47:10;;;;;;;6.63;3.97;;;;;;;14.38;68.03;100542.53;10403438;28;20067;-68
2022/10/08 07:52:11;;;;;;;5.60;3.35;;;;;;;14.73;66.69;100547.31;10396169;28;20051;-70
2022/10/08 07:57:12;;;;;;;7.13;2.90;;;;;;;14.79;66.26;100545.91;10416283;28;20048;-68
2022/10/08 08:02:14;;;;;;;7.15;2.97;;;;;;;15.04;63.43;100552.47;10411849;28;20064;-71
2022/10/08 08:07:16;;;;;;;4.97;2.90;;;;;;;15.17;63.52;100553.00;10395620;28;20241;-68
2022/10/08 08:12:17;;;;;;;7.20;3.00;;;;;;;15.45;61.53;100544.16;10411775;28;20107;-67
2022/10/08 08:17:18;;;;;;;7.32;3.65;;;;;;;15.39;61.90;100556.31;10388860;28;20060;-69
2022/10/08 08:22:20;;;;;;;7.38;2.65;;;;;;;15.72;60.57;100552.19;10375564;28;20048;-69
2022/10/08 08:27:21;;;;;;;5.35;2.33;;;;;;;15.95;59.53;100542.91;10415453;28;20044;-70
2022/10/08 08:32:22;;;;;;;4.25;1.98;;;;;;;16.26;59.17;100546.94;10415246;28;20195;-71
2022/10/08 08:37:29;;;;;;;5.05;2.30;;;;;;;16.83;57.61;100552.91;10441074;28;20059;-67
2022/10/08 08:42:52;;;;;;;4.68;2.80;;;;;;;17.20;55.36;100550.00;10416956;28;20045;-68
2022/10/08 08:48:12;;;;;;;8.13;3.13;;;;;;;17.09;56.08;100552.97;10406043;28;20048;-68
2022/10/08 08:53:14;;;;;;;7.22;2.30;;;;;;;17.80;54.91;100553.63;10436351;28;20048;-68
2022/10/08 08:58:34;;;;;;;6.13;1.73;;;;;;;17.92;52.91;100556.91;10439952;28;20065;-67
2022/10/08 09:03:44;;;;;;;4.28;1.95;;;;;;;17.62;53.72;100570.72;10399164;28;20060;-70
2022/10/08 09:08:55;;;;;;;7.75;1.88;;;;;;;17.39;54.08;100591.16;10429173;28;20056;-68
2022/10/08 09:14:33;;;;;;;8.77;1.90;;;;;;;16.83;55.44;100602.19;10414730;28;20071;-70
2022/10/08 09:19:36;;;;;;;6.10;2.42;;;;;;;16.88;55.50;100605.25;10435771;28;20052;-70
2022/10/08 09:24:38;;;;;;;6.33;2.10;;;;;;;17.31;54.40;100600.84;10412473;28;20064;-69
2022/10/08 09:29:39;;;;;;;5.13;1.92;;;;;;;17.25;55.90;100609.56;10431788;28;20166;-68
2022/10/08 09:34:42;;;;;;;5.88;1.77;;;;;;;17.23;54.64;100619.63;10415954;28;20041;-69
2022/10/08 09:40:12;;;;;;;5.65;1.75;;;;;;;17.27;54.89;100636.31;10419198;28;21425;-70
2022/10/08 09:45:32;;;;;;;6.20;1.80;;;;;;;17.57;53.98;100634.13;10439311;28;20045;-70
2022/10/08 09:50:36;;;;;;;5.10;2.28;;;;;;;18.28;52.69;100643.69;10434654;28;20036;-69
2022/10/08 09:55:37;;;;;;;4.70;1.63;;;;;;;18.18;52.40;100645.72;10416784;28;20494;-66
2022/10/08 10:00:38;;;;;;;5.30;1.83;;;;;;;18.08;54.19;100650.38;10436050;28;20428;-70
2022/10/08 10:05:40;;;;;;;5.25;1.60;;;;;;;18.65;53.41;100652.38;10398058;28;20528;-69
2022/10/08 10:10:44;;;;;;;7.05;2.00;;;;;;;20.00;49.96;100660.84;10392823;28;20080;-67
2022/10/08 10:15:51;;;;;;;4.70;1.77;;;;;;;20.82;46.62;100665.78;10392529;28;20049;-67
2022/10/08 10:20:57;;;;;;;3.40;1.45;;;;;;;20.19;48.55;100666.81;10392516;28;20052;-70
2022/10/08 10:26:22;;;;;;;7.75;2.10;;;;;;;19.81;48.48;100670.19;10389295;28;20333;-68
2022/10/08 10:31:30;;;;;;;3.03;1.05;;;;;;;19.17;50.63;100667.41;10408581;28;20045;-69
2022/10/08 10:36:37;;;;;;;4.88;1.88;;;;;;;18.89;51.06;100659.66;10399075;28;20053;-67
2022/10/08 10:41:47;;;;;;;2.00;0.98;;;;;;;19.29;50.79;100659.81;10397998;28;20590;-68
2022/10/08 10:46:54;;;;;;;3.88;1.05;;;;;;;18.75;52.49;100668.38;10390228;28;20583;-68
2022/10/08 10:52:04;;;;;;;2.15;0.98;;;;;;;18.48;53.34;100663.13;10384831;28;20060;-67
2022/10/08 10:57:21;;;;;;;5.05;1.48;;;;;;;18.55;53.00;100674.94;10389291;28;20060;-67
2022/10/08 11:02:48;;;;;;;2.25;1.02;;;;;;;19.45;51.27;100669.75;10390670;28;20060;-68
2022/10/08 11:07:59;;;;;;;4.15;1.35;;;;;;;19.31;52.20;100687.47;10367637;28;20548;-67
2022/10/08 11:13:16;;;;;;;3.55;1.65;;;;;;;18.49;53.98;100680.97;10394569;28;20052;-67
2022/10/08 11:18:45;;;;;;;3.35;1.20;;;;;;;18.12;55.45;100684.06;10390597;28;20849;-68
2022/10/08 11:24:18;;;;;;;2.75;1.25;;;;;;;19.72;53.43;100677.44;10436985;28;20515;-68
2022/10/08 11:29:32;;;;;;;4.03;1.88;;;;;;;25.00;39.80;100669.34;10389776;28;20707;-66
2022/10/08 11:34:41;;;;;;;2.97;1.17;;;;;;;28.39;33.67;100682.22;10389811;28;20516;-66
2022/10/08 11:39:52;;;;;;;2.20;1.00;;;;;;;28.42;32.08;100681.75;10391993;28;20052;-69
2022/10/08 11:44:53;;;;;;;3.28;1.20;;;;;;;24.16;38.20;100671.41;10392408;28;20049;-68
2022/10/08 11:49:55;;;;;;;3.90;1.60;;;;;;;23.41;40.83;100679.31;10392397;28;20060;-67
2022/10/08 11:54:59;;;;;;;5.20;1.33;;;;;;;23.37;39.81;100677.22;10395518;28;20060;-67
2022/10/08 12:00:06;;;;;;;4.03;1.23;;;;;;;23.74;38.33;100683.31;10404710;28;20049;-68
2022/10/08 12:05:21;;;;;;;2.20;0.75;;;;;;;25.53;36.00;100675.84;10404689;28;20737;-68
2022/10/08 12:10:28;;;;;;;2.45;0.75;;;;;;;33.53;24.56;100661.88;10399470;28;20087;-68
2022/10/08 12:15:32;;;;;;;2.88;0.70;;;;;;;38.30;18.50;100660.31;10392441;28;20050;-71
2022/10/08 12:20:33;;;;;;;1.92;0.70;;;;;;;40.26;17.00;100663.97;10397121;28;20308;-72
2022/10/08 12:25:47;;;;;;;2.78;0.80;;;;;;;31.18;23.85;100665.31;10393382;28;20049;-70
2022/10/08 12:30:51;;;;;;;5.68;1.02;;;;;;;26.15;30.03;100672.75;10398293;28;20049;-71
2022/10/08 12:36:21;;;;;;;1.88;0.80;;;;;;;22.66;34.98;100680.72;10392424;28;20064;-66
2022/10/08 12:41:44;;;;;;;3.28;0.90;;;;;;;20.78;39.90;100669.03;10393518;28;20049;-68
2022/10/08 12:46:55;;;;;;;3.53;0.85;;;;;;;21.26;39.78;100675.06;10397161;28;20064;-68
2022/10/08 12:52:04;;;;;;;4.10;1.15;;;;;;;20.86;40.51;100674.38;10399698;28;20037;-69
2022/10/08 12:57:11;;;;;;;3.25;1.30;;;;;;;22.17;39.42;100669.50;10395633;28;20049;-69
2022/10/08 13:02:41;;;;;;;3.15;1.50;;;;;;;21.35;40.26;100673.94;10393316;28;20048;-68
2022/10/08 13:07:42;;;;;;;2.97;1.48;;;;;;;25.65;34.13;100671.41;10394275;28;20522;-66
2022/10/08 13:13:04;;;;;;;3.85;1.38;;;;;;;33.38;23.17;100649.63;10395529;28;20057;-69
2022/10/08 13:18:13;;;;;;;3.17;1.07;;;;;;;30.42;23.74;100657.41;10392910;28;20053;-68
2022/10/08 13:23:32;;;;;;;5.63;1.38;;;;;;;32.30;23.00;100667.13;10394157;28;20587;-67
2022/10/08 13:28:33;;;;;;;3.17;0.80;;;;;;;36.39;19.16;100659.44;10428851;28;20048;-70
2022/10/08 13:33:54;;;;;;;3.75;0.90;;;;;;;37.96;16.57;100655.75;10413868;28;20049;-71
2022/10/08 13:38:56;;;;;;;5.35;1.00;;;;;;;39.03;16.12;100667.22;10423685;28;20049;-72
2022/10/08 13:43:57;;;;;;;2.90;0.70;;;;;;;39.83;14.87;100650.44;10427581;28;20052;-70
2022/10/08 13:48:58;;;;;;;2.03;0.93;;;;;;;40.07;14.61;100653.00;10407901;28;20045;-72
2022/10/08 13:54:00;;;;;;;2.28;0.82;;;;;;;40.06;14.82;100659.69;10433891;28;20056;-71
2022/10/08 13:59:01;;;;;;;2.88;0.90;;;;;;;40.48;13.78;100665.19;10435956;28;20138;-72
2022/10/08 14:04:02;;;;;;;2.53;0.70;;;;;;;39.64;14.43;100655.28;10427351;28;20060;-71
2022/10/08 14:09:06;;;;;;;2.60;0.80;;;;;;;39.53;15.51;100647.13;10429020;28;20473;-72
2022/10/08 14:14:14;;;;;;;2.72;1.00;;;;;;;39.39;14.72;100641.53;10414057;28;20072;-69
2022/10/08 14:19:17;;;;;;;2.17;0.85;;;;;;;36.08;16.04;100653.22;10410914;28;20044;-71
2022/10/08 14:24:18;;;;;;;2.38;1.00;;;;;;;36.27;16.75;100656.19;10413132;28;20048;-70
2022/10/08 14:29:19;;;;;;;4.45;0.50;;;;;;;32.67;19.25;100659.00;10414639;28;20866;-70
2022/10/08 14:34:21;;;;;;;1.70;0.40;;;;;;;29.42;22.62;100649.22;10415939;28;20055;-72
2022/10/08 14:39:23;;;;;;;6.28;1.65;;;;;;;26.81;25.55;100655.16;10420832;28;20059;-71
2022/10/08 14:44:24;;;;;;;2.38;0.70;;;;;;;25.61;27.29;100659.25;10417695;28;20052;-68
2022/10/08 14:49:25;;;;;;;3.08;0.90;;;;;;;24.75;28.73;100660.09;10418716;28;20056;-67
2022/10/08 14:54:27;;;;;;;3.10;0.97;;;;;;;23.91;29.89;100662.94;10401812;28;20059;-67
2022/10/08 14:59:28;;;;;;;2.03;0.70;;;;;;;22.91;32.08;100660.31;10416251;28;20290;-69
2022/10/08 15:04:29;;;;;;;2.22;0.70;;;;;;;22.37;32.56;100660.81;10416778;28;20056;-67
2022/10/08 15:09:30;;;;;;;3.08;1.13;;;;;;;21.75;33.65;100656.66;10420745;28;20048;-68
2022/10/08 15:14:32;;;;;;;3.55;1.00;;;;;;;20.90;36.97;100661.34;10433966;28;20075;-67
2022/10/08 15:19:38;;;;;;;2.42;0.90;;;;;;;20.73;36.93;100664.19;10419323;28;20127;-67
2022/10/08 15:24:40;;;;;;;3.67;0.90;;;;;;;20.67;38.54;100654.03;10400671;28;20475;-69
2022/10/08 15:29:41;;;;;;;2.85;0.80;;;;;;;20.33;37.32;100651.69;10401166;28;20577;-67
2022/10/08 15:34:42;;;;;;;1.90;0.95;;;;;;;19.92;37.80;100660.84;10438070;28;20048;-66
2022/10/08 15:39:44;;;;;;;3.95;1.15;;;;;;;19.72;38.14;100665.78;10444864;28;20104;-69
2022/10/08 15:44:45;;;;;;;3.60;1.40;;;;;;;19.30;38.90;100667.72;10444073;28;20108;-70
2022/10/08 15:49:46;;;;;;;5.00;1.73;;;;;;;19.19;42.08;100673.50;10433935;28;20860;-69
2022/10/08 15:54:48;;;;;;;2.70;1.10;;;;;;;19.20;41.93;100692.22;10423165;28;20057;-68
2022/10/08 15:59:49;;;;;;;2.65;1.40;;;;;;;19.26;42.52;100696.09;10423251;28;20546;-70
2022/10/08 16:04:52;;;;;;;6.05;1.77;;;;;;;19.26;43.11;100696.09;10423964;28;20592;-69
2022/10/08 16:09:53;;;;;;;3.20;1.77;;;;;;;19.12;43.79;100702.16;10420362;28;20373;-68
2022/10/08 16:14:54;;;;;;;4.20;1.98;;;;;;;19.11;42.65;100711.25;10420320;28;20627;-68
2022/10/08 16:19:55;;;;;;;3.15;1.40;;;;;;;18.66;44.00;100713.34;10407291;28;20053;-69
2022/10/08 16:24:57;;;;;;;3.67;1.40;;;;;;;18.34;45.09;100715.78;10405062;28;20060;-69
2022/10/08 16:29:58;;;;;;;3.83;1.60;;;;;;;18.30;45.22;100730.63;10404918;28;20053;-66
2022/10/08 16:35:00;;;;;;;2.13;1.33;;;;;;;18.17;45.09;100730.22;10417201;28;20068;-67
2022/10/08 16:40:02;;;;;;;5.55;1.67;;;;;;;18.00;45.65;100734.69;10400218;28;20048;-68
2022/10/08 16:45:04;;;;;;;3.55;1.50;;;;;;;17.82;43.55;100748.19;10394571;28;20052;-66
2022/10/08 16:50:06;;;;;;;2.63;1.45;;;;;;;17.54;44.65;100756.41;10414426;28;20064;-66
2022/10/08 16:55:08;;;;;;;7.15;3.13;;;;;;;17.64;45.38;100776.00;10408309;28;20056;-68
2022/10/08 17:00:10;;;;;;;4.68;2.95;;;;;;;17.50;47.73;100776.56;10400921;28;20044;-71
2022/10/08 17:05:11;;;;;;;7.15;3.80;;;;;;;17.40;48.25;100781.16;10413403;28;20494;-69
2022/10/08 17:10:12;;;;;;;4.65;3.22;;;;;;;17.27;47.60;100789.66;10420982;28;20064;-69
2022/10/08 17:15:14;;;;;;;5.15;2.40;;;;;;;17.21;48.25;100812.63;10421881;28;20072;-71
2022/10/08 17:20:15;;;;;;;3.25;2.10;;;;;;;17.06;47.91;100822.22;10420566;28;20084;-71
2022/10/08 17:25:16;;;;;;;3.28;2.00;;;;;;;17.04;48.47;100829.59;10417911;28;20052;-71
2022/10/08 17:30:17;;;;;;;3.55;2.38;;;;;;;16.95;48.94;100842.13;10421057;28;20063;-69
2022/10/08 17:35:19;;;;;;;3.08;2.03;;;;;;;16.90;48.92;100855.16;10432676;28;20613;-72
2022/10/08 17:40:20;;;;;;;4.85;2.90;;;;;;;16.75;49.42;100855.66;10420023;28;20446;-70
2022/10/08 17:45:21;;;;;;;5.18;2.83;;;;;;;16.73;51.05;100859.47;10416758;28;20481;-71
2022/10/08 17:50:23;;;;;;;5.75;2.20;;;;;;;16.66;50.89;100863.75;10404320;28;20480;-71
2022/10/08 17:55:24;;;;;;;5.85;2.75;;;;;;;16.48;50.17;100869.88;10418221;28;20089;-71
2022/10/08 18:00:26;;;;;;;4.85;2.80;;;;;;;16.35;51.49;100882.78;10402265;28;20045;-70
2022/10/08 18:05:28;;;;;;;4.95;2.92;;;;;;;16.31;51.69;100886.78;10419107;28;20063;-72
2022/10/08 18:10:29;;;;;;;6.82;3.13;;;;;;;16.28;52.15;100897.81;10420114;28;20055;-71
2022/10/08 18:15:30;;;;;;;5.82;4.13;;;;;;;16.10;52.88;100895.88;10402311;28;20048;-70
2022/10/08 18:20:31;;;;;;;6.05;3.58;;;;;;;16.01;53.42;100910.16;10400147;28;20049;-70
2022/10/08 18:25:34;;;;;;;5.38;3.10;;;;;;;15.94;53.59;100914.41;10413104;28;20501;-69
2022/10/08 18:30:35;;;;;;;5.70;3.47;;;;;;;15.81;53.15;100918.22;10400143;28;20048;-68
2022/10/08 18:35:37;;;;;;;5.97;2.90;;;;;;;15.69;54.18;100913.97;10420324;28;20734;-68
2022/10/08 18:40:38;;;;;;;5.53;3.22;;;;;;;15.73;54.47;100931.44;10400360;28;20060;-70
2022/10/08 18:45:39;;;;;;;8.75;3.78;;;;;;;15.64;54.13;100938.53;10416468;28;20075;-71
2022/10/08 18:50:41;;;;;;;6.07;2.88;;;;;;;15.63;54.49;100942.19;10420537;28;20071;-70
2022/10/08 18:55:48;;;;;;;5.03;3.35;;;;;;;15.54;54.49;100943.88;10411930;28;20059;-71
2022/10/08 19:00:49;;;;;;;6.45;3.65;;;;;;;15.47;55.63;100957.97;10430149;28;20041;-71
2022/10/08 19:05:51;;;;;;;6.80;3.10;;;;;;;15.40;55.38;100951.47;10420457;28;20298;-70
2022/10/08 19:10:53;;;;;;;5.50;4.20;;;;;;;15.33;55.46;100960.06;10398166;28;20059;-71
2022/10/08 19:15:54;;;;;;;6.00;3.63;;;;;;;15.23;55.45;100959.19;10419876;28;20048;-70
2022/10/08 19:20:55;;;;;;;8.00;5.82;;;;;;;15.15;55.64;100965.25;10410926;28;20044;-69
2022/10/08 19:25:57;;;;;;;6.28;4.47;;;;;;;15.06;55.72;100963.38;10424930;28;20049;-70
2022/10/08 19:30:58;;;;;;;6.93;4.47;;;;;;;15.04;54.89;100968.00;10425744;28;20068;-70
2022/10/08 19:35:59;;;;;;;5.55;3.03;;;;;;;14.92;54.55;100979.81;10411844;28;20048;-69
2022/10/08 19:41:06;;;;;;;4.07;2.85;;;;;;;14.81;53.91;100968.19;10412357;28;20064;-70
2022/10/08 19:46:08;;;;;;;3.28;2.22;;;;;;;14.84;53.82;100984.00;10401143;28;20442;-70
2022/10/08 19:51:10;;;;;;;3.00;2.47;;;;;;;14.71;53.36;100999.44;10397331;28;20107;-69
2022/10/08 19:56:12;;;;;;;6.95;4.40;;;;;;;14.70;53.70;100997.78;10430240;28;20828;-70
2022/10/08 20:01:20;;;;;;;5.72;4.10;;;;;;;14.65;53.97;100999.97;10392588;28;20537;-69
2022/10/08 20:06:23;;;;;;;4.75;3.03;;;;;;;14.57;53.15;101015.84;10376514;28;20053;-70
2022/10/08 20:11:26;;;;;;;5.32;2.05;;;;;;;14.45;52.64;101018.56;10379929;28;20843;-69
2022/10/08 20:16:31;;;;;;;4.90;1.73;;;;;;;14.44;53.54;101029.41;10377201;28;20666;-70
2022/10/08 20:21:36;;;;;;;4.28;1.60;;;;;;;14.47;53.49;101022.00;10398014;28;20056;-69
2022/10/08 20:26:38;;;;;;;;;;;;;;;14.38;55.14;101024.59;10392994;28;20053;-70
2022/10/08 20:31:42;;;;;;;6.88;2.08;;;;;;;14.27;53.89;101023.66;10391041;28;19929;-71
2022/10/08 20:36:45;;;;;;;4.75;1.50;;;;;;;14.27;53.98;101020.13;10386792;28;20140;-69
2022/10/08 20:41:46;;;;;;;3.83;1.67;;;;;;;14.17;54.03;101025.41;10383840;28;20052;-69
2022/10/08 20:46:49;;;;;;;5.80;3.70;;;;;;;14.12;54.98;101032.97;10386325;28;20045;-69
2022/10/08 20:51:50;;;;;;;5.43;3.38;;;;;;;14.19;54.54;101030.66;10390404;28;20316;-69
2022/10/08 20:56:52;;;;;;;3.65;2.35;;;;;;;14.19;54.81;101030.66;10390067;28;20059;-69
2022/10/08 21:01:53;;;;;;;5.22;2.50;;;;;;;14.06;54.92;101046.88;10390303;28;20072;-68
2022/10/08 21:06:54;;;;;;;3.60;1.52;;;;;;;14.00;54.57;101048.22;10394655;28;20142;-72
2022/10/08 21:11:56;;;;;;;5.55;2.47;;;;;;;13.97;55.43;101052.00;10398241;28;20049;-71
2022/10/08 21:16:57;;;;;;;5.57;2.42;;;;;;;13.81;55.16;101058.75;10394840;28;20049;-68
2022/10/08 21:21:58;;;;;;;5.78;2.25;;;;;;;13.74;55.79;101055.72;10394101;28;20045;-72
2022/10/08 21:27:00;;;;;;;4.88;3.00;;;;;;;13.72;56.49;101055.84;10435718;28;20060;-72
2022/10/08 21:32:01;;;;;;;6.43;3.00;;;;;;;13.56;57.47;101074.09;10431989;28;20079;-73
2022/10/08 21:37:02;;;;;;;6.43;3.90;;;;;;;13.44;57.15;101071.44;10447810;28;20056;-73
2022/10/08 21:42:03;;;;;;;3.78;3.25;;;;;;;13.31;57.81;101078.69;10412904;28;20048;-71
2022/10/08 21:47:05;;;;;;;6.82;3.45;;;;;;;13.29;58.55;101083.31;10426499;28;20049;-70
2022/10/08 21:52:06;;;;;;;7.40;4.22;;;;;;;13.27;58.71;101071.91;10409445;28;20061;-70
2022/10/08 21:57:07;;;;;;;4.95;3.60;;;;;;;13.41;59.15;101079.69;10411294;28;20053;-70
2022/10/08 22:02:11;;;;;;;4.28;3.55;;;;;;;13.28;59.17;101084.28;10433241;28;20095;-71
2022/10/08 22:07:12;;;;;;;9.10;4.00;;;;;;;13.14;60.01;101073.84;10412335;28;20480;-70
2022/10/08 22:12:14;;;;;;;4.85;3.70;;;;;;;13.12;60.10;101073.97;10426323;28;20056;-70
2022/10/08 22:17:15;;;;;;;4.45;3.40;;;;;;;12.97;60.88;101092.03;10430024;28;20048;-70
2022/10/08 22:22:16;;;;;;;6.03;3.40;;;;;;;12.95;61.21;101093.13;10443128;28;20048;-70
2022/10/08 22:27:17;;;;;;;6.97;3.10;;;;;;;12.84;61.16;101086.78;10434136;28;20092;-71
2022/10/08 22:32:19;;;;;;;5.20;3.88;;;;;;;12.72;61.09;101074.38;10444571;28;20060;-71
2022/10/08 22:37:20;;;;;;;6.68;4.63;;;;;;;12.66;61.97;101077.50;10441283;28;20076;-68
2022/10/08 22:42:21;;;;;;;7.18;5.25;;;;;;;12.64;62.33;101079.41;10425909;28;20052;-71
2022/10/08 22:47:23;;;;;;;7.05;5.10;;;;;;;12.52;62.73;101075.84;10459936;28;20099;-72
2022/10/08 22:52:24;;;;;;;7.00;5.13;;;;;;;12.48;63.10;101077.09;10436979;28;20044;-69
2022/10/08 22:57:25;;;;;;;11.77;6.50;;;;;;;12.38;63.57;101079.56;10417791;28;20407;-69
2022/10/08 23:02:27;;;;;;;7.45;6.38;;;;;;;12.40;63.67;101076.78;10416246;28;20056;-71
2022/10/08 23:07:28;;;;;;;6.20;5.40;;;;;;;12.63;63.05;101083.09;10434173;28;20041;-70
2022/10/08 23:12:29;;;;;;;7.95;6.25;;;;;;;12.51;63.48;101079.53;10419323;28;20044;-69
2022/10/08 23:17:31;;;;;;;7.85;6.72;;;;;;;12.62;63.64;101071.53;10415103;28;20048;-69
2022/10/08 23:22:32;;;;;;;9.05;7.22;;;;;;;12.54;63.84;101073.94;10423556;28;20064;-69